createdAt,value
2017-12-03T00:00:50.082Z,17.53
2017-12-03T00:03:17.621Z,16.87
2017-12-03T00:05:45.119Z,16.53
2017-12-03T00:08:12.651Z,14.60
2017-12-03T00:10:40.145Z,13.50
2017-12-03T00:13:07.689Z,13.50
2017-12-03T00:15:35.205Z,15.30
2017-12-03T00:18:02.750Z,13.00
2017-12-03T00:20:30.272Z,14.10
2017-12-03T00:22:57.817Z,12.30
2017-12-03T00:25:25.310Z,13.00
2017-12-03T00:27:53.623Z,12.20
2017-12-03T00:30:21.158Z,13.50
2017-12-03T00:32:48.672Z,13.63
2017-12-03T00:35:16.209Z,13.67
2017-12-03T00:37:44.419Z,13.57
2017-12-03T00:40:11.962Z,12.43
2017-12-03T00:42:39.489Z,12.83
2017-12-03T00:45:07.017Z,13.33
2017-12-03T00:47:35.293Z,11.20
2017-12-03T00:50:02.891Z,12.30
2017-12-03T00:52:31.170Z,12.23
2017-12-03T00:54:58.694Z,13.73
2017-12-03T00:57:26.337Z,12.77
2017-12-03T00:59:53.841Z,11.70
2017-12-03T01:02:21.376Z,11.70
2017-12-03T01:04:49.908Z,11.87
2017-12-03T01:07:17.469Z,11.97
2017-12-03T01:09:44.971Z,13.13
2017-12-03T01:12:12.522Z,13.67
2017-12-03T01:14:40.042Z,12.37
2017-12-03T01:17:08.287Z,13.70
2017-12-03T01:19:35.794Z,14.43
2017-12-03T01:22:03.349Z,13.30
2017-12-03T01:24:30.858Z,14.27
2017-12-03T01:26:58.517Z,13.67
2017-12-03T01:29:26.793Z,13.33
2017-12-03T01:31:55.069Z,13.33
2017-12-03T01:34:22.607Z,13.20
2017-12-03T01:36:50.147Z,13.60
2017-12-03T01:39:17.691Z,12.40
2017-12-03T01:41:45.266Z,11.60
2017-12-03T01:44:12.802Z,12.93
2017-12-03T01:46:40.299Z,12.43
2017-12-03T01:49:07.846Z,11.97
2017-12-03T01:51:35.345Z,13.87
2017-12-03T01:54:02.879Z,12.80
2017-12-03T01:56:30.381Z,13.30
2017-12-03T01:58:57.933Z,13.07
2017-12-03T02:01:25.429Z,12.53
2017-12-03T02:03:52.946Z,12.20
2017-12-03T02:06:20.494Z,11.67
2017-12-03T02:08:48.782Z,12.57
2017-12-03T02:11:17.083Z,12.33
2017-12-03T02:13:44.588Z,12.67
2017-12-03T02:16:12.201Z,13.30
2017-12-03T02:18:39.703Z,11.97
2017-12-03T02:21:07.249Z,11.07
2017-12-03T02:23:34.752Z,13.00
2017-12-03T02:26:02.314Z,13.40
2017-12-03T02:28:29.830Z,12.37
2017-12-03T02:30:57.361Z,13.93
2017-12-03T02:33:24.895Z,12.57
2017-12-03T02:38:42.776Z,12.77
2017-12-03T02:41:10.356Z,12.90
2017-12-03T02:43:37.883Z,13.30
2017-12-03T02:46:05.389Z,13.17
2017-12-03T02:48:32.969Z,12.07
2017-12-03T02:51:00.457Z,13.83
2017-12-03T02:53:28.000Z,12.70
2017-12-03T02:55:55.522Z,13.27
2017-12-03T02:58:23.050Z,14.20
2017-12-03T03:00:50.545Z,12.93
2017-12-03T03:03:18.849Z,12.87
2017-12-03T03:05:46.356Z,12.97
2017-12-03T03:08:13.854Z,14.17
2017-12-03T03:10:41.392Z,12.23
2017-12-03T03:13:08.881Z,12.53
2017-12-03T03:15:36.420Z,13.23
2017-12-03T03:18:03.921Z,13.13
2017-12-03T03:20:31.449Z,14.23
2017-12-03T03:22:58.951Z,12.30
2017-12-03T03:25:26.474Z,12.57
2017-12-03T03:27:54.003Z,12.07
2017-12-03T03:30:21.561Z,13.07
2017-12-03T03:32:49.080Z,14.03
2017-12-03T03:35:16.576Z,12.97
2017-12-03T03:37:44.120Z,12.67
2017-12-03T03:40:12.381Z,12.10
2017-12-03T03:42:39.914Z,12.60
2017-12-03T03:45:07.419Z,11.80
2017-12-03T03:47:34.952Z,11.33
2017-12-03T03:50:02.474Z,13.53
2017-12-03T03:52:30.006Z,13.73
2017-12-03T03:54:58.260Z,13.23
2017-12-03T03:57:25.794Z,13.13
2017-12-03T03:59:53.326Z,12.67
2017-12-03T04:02:20.824Z,12.83
2017-12-03T04:04:48.468Z,11.23
2017-12-03T04:07:15.968Z,12.50
2017-12-03T04:09:43.495Z,12.70
2017-12-03T04:12:11.813Z,11.93
2017-12-03T04:14:39.349Z,12.47
2017-12-03T04:17:07.606Z,11.97
2017-12-03T04:19:35.104Z,13.17
2017-12-03T04:22:03.390Z,12.73
2017-12-03T04:24:31.668Z,12.47
2017-12-03T04:26:59.205Z,13.33
2017-12-03T04:29:26.707Z,12.93
2017-12-03T04:31:54.233Z,11.80
2017-12-03T04:34:21.785Z,13.63
2017-12-03T04:36:49.325Z,12.67
2017-12-03T04:39:16.821Z,11.90
2017-12-03T04:41:45.129Z,14.33
2017-12-03T04:44:12.660Z,11.70
2017-12-03T04:46:40.168Z,11.93
2017-12-03T04:49:07.753Z,12.17
2017-12-03T04:51:35.300Z,12.90
2017-12-03T04:54:03.600Z,13.63
2017-12-03T04:56:31.141Z,12.43
2017-12-03T04:58:58.674Z,13.77
2017-12-03T05:01:26.174Z,13.60
2017-12-03T05:03:53.710Z,13.37
2017-12-03T05:06:21.208Z,13.33
2017-12-03T05:08:48.737Z,11.87
2017-12-03T05:11:16.233Z,13.60
2017-12-03T05:13:43.774Z,13.00
2017-12-03T05:16:11.276Z,14.10
2017-12-03T05:18:38.775Z,13.70
2017-12-03T05:21:06.306Z,12.80
2017-12-03T05:23:33.809Z,14.57
2017-12-03T05:26:01.338Z,13.80
2017-12-03T05:28:28.833Z,12.40
2017-12-03T05:30:56.352Z,12.20
2017-12-03T05:33:23.861Z,15.10
2017-12-03T05:35:51.785Z,12.90
2017-12-03T05:38:19.325Z,14.30
2017-12-03T05:40:46.861Z,13.57
2017-12-03T05:43:14.392Z,13.70
2017-12-03T05:45:41.925Z,13.87
2017-12-03T05:48:09.540Z,14.80
2017-12-03T05:50:37.084Z,14.77
2017-12-03T05:53:04.585Z,13.43
2017-12-03T05:55:32.116Z,15.07
2017-12-03T05:57:59.626Z,14.23
2017-12-03T06:00:27.157Z,13.23
2017-12-03T06:02:54.687Z,15.93
2017-12-03T06:05:22.965Z,15.57
2017-12-03T06:07:50.492Z,15.53
2017-12-03T06:10:17.998Z,16.70
2017-12-03T06:12:45.626Z,16.33
2017-12-03T06:15:13.122Z,14.20
2017-12-03T06:17:42.633Z,14.57
2017-12-03T06:20:10.139Z,13.70
2017-12-03T06:22:37.704Z,16.80
2017-12-03T06:25:05.909Z,16.13
2017-12-03T06:27:34.219Z,15.57
2017-12-03T06:30:01.709Z,14.50
2017-12-03T06:32:29.249Z,15.13
2017-12-03T06:34:56.754Z,15.90
2017-12-03T06:37:24.329Z,17.07
2017-12-03T06:39:51.861Z,16.50
2017-12-03T06:42:20.130Z,16.27
2017-12-03T06:44:47.652Z,16.33
2017-12-03T06:47:15.173Z,16.10
2017-12-03T06:49:42.714Z,16.50
2017-12-03T06:52:10.220Z,18.33
2017-12-03T06:54:38.508Z,17.40
2017-12-03T06:57:06.004Z,17.40
2017-12-03T06:59:33.528Z,18.53
2017-12-03T07:02:01.030Z,19.10
2017-12-03T07:04:29.339Z,16.07
2017-12-03T07:06:56.840Z,19.03
2017-12-03T07:09:25.145Z,19.53
2017-12-03T07:11:52.659Z,17.63
2017-12-03T07:14:20.921Z,18.83
2017-12-03T07:16:48.447Z,16.47
2017-12-03T07:19:15.944Z,20.30
2017-12-03T07:21:43.521Z,19.40
2017-12-03T07:24:11.017Z,18.50
2017-12-03T07:26:39.320Z,18.63
2017-12-03T07:29:09.246Z,18.57
2017-12-03T07:31:38.136Z,19.17
2017-12-03T07:34:05.669Z,19.27
2017-12-03T07:36:33.195Z,19.40
2017-12-03T07:39:01.468Z,20.30
2017-12-03T07:41:29.772Z,20.57
2017-12-03T07:43:57.401Z,18.83
2017-12-03T07:46:24.946Z,19.60
2017-12-03T07:48:52.468Z,17.97
2017-12-03T07:51:19.965Z,18.63
2017-12-03T07:53:48.266Z,19.20
2017-12-03T07:56:15.848Z,19.67
2017-12-03T07:58:43.416Z,20.63
2017-12-03T08:01:10.991Z,20.40
2017-12-03T08:03:38.531Z,19.27
2017-12-03T08:06:07.552Z,17.70
2017-12-03T08:08:35.396Z,18.93
2017-12-03T08:11:02.971Z,20.47
2017-12-03T08:13:30.504Z,20.00
2017-12-03T08:15:58.764Z,19.80
2017-12-03T08:18:27.032Z,18.37
2017-12-03T08:20:54.681Z,20.17
2017-12-03T08:23:22.180Z,19.27
2017-12-03T08:25:49.714Z,20.30
2017-12-03T08:28:17.211Z,20.20
2017-12-03T08:30:44.830Z,19.60
2017-12-03T08:33:12.336Z,19.67
2017-12-03T08:35:39.873Z,19.13
2017-12-03T08:38:07.378Z,19.93
2017-12-03T08:40:34.931Z,20.23
2017-12-03T08:43:02.436Z,21.90
2017-12-03T08:45:30.084Z,22.50
2017-12-03T08:47:57.642Z,21.67
2017-12-03T08:50:25.133Z,20.67
2017-12-03T08:52:52.686Z,19.20
2017-12-03T08:55:20.209Z,20.80
2017-12-03T08:57:47.768Z,23.07
2017-12-03T09:00:15.260Z,20.97
2017-12-03T09:02:42.843Z,24.03
2017-12-03T09:05:11.129Z,21.87
2017-12-03T09:07:39.557Z,20.60
2017-12-03T09:10:07.057Z,21.73
2017-12-03T09:12:34.603Z,21.83
2017-12-03T09:15:02.149Z,23.20
2017-12-03T09:17:29.703Z,22.10
2017-12-03T09:19:57.972Z,22.57
2017-12-03T09:22:25.516Z,22.27
2017-12-03T09:24:53.093Z,20.57
2017-12-03T09:27:20.588Z,21.47
2017-12-03T09:29:48.132Z,23.10
2017-12-03T09:32:15.625Z,22.10
2017-12-03T09:34:43.176Z,23.10
2017-12-03T09:37:10.673Z,23.83
2017-12-03T09:39:38.197Z,20.33
2017-12-03T09:42:05.729Z,22.07
2017-12-03T09:44:33.216Z,19.43
2017-12-03T09:47:00.741Z,19.30
2017-12-03T09:49:28.289Z,23.30
2017-12-03T09:51:55.828Z,22.80
2017-12-03T09:54:24.084Z,22.60
2017-12-03T09:56:51.800Z,24.73
2017-12-03T09:59:19.317Z,22.93
2017-12-03T10:01:46.811Z,25.93
2017-12-03T10:04:14.378Z,23.43
2017-12-03T10:06:41.891Z,23.27
2017-12-03T10:09:10.196Z,21.80
2017-12-03T10:11:37.710Z,21.10
2017-12-03T10:14:05.237Z,22.30
2017-12-03T10:16:32.744Z,21.30
2017-12-03T10:19:00.289Z,21.27
2017-12-03T10:21:27.777Z,23.20
2017-12-03T10:23:55.389Z,22.57
2017-12-03T10:26:22.938Z,22.47
2017-12-03T10:28:50.472Z,23.27
2017-12-03T10:31:18.715Z,22.83
2017-12-03T10:33:46.261Z,21.87
2017-12-03T10:36:13.764Z,19.90
2017-12-03T10:38:41.325Z,23.67
2017-12-03T10:41:08.819Z,21.90
2017-12-03T10:43:36.359Z,21.20
2017-12-03T10:46:03.936Z,21.40
2017-12-03T10:48:31.499Z,21.17
2017-12-03T10:50:59.037Z,22.63
2017-12-03T10:53:26.532Z,22.80
2017-12-03T10:55:54.066Z,22.90
2017-12-03T10:58:22.322Z,21.70
2017-12-03T11:00:49.908Z,21.10
2017-12-03T11:03:17.414Z,21.90
2017-12-03T11:05:44.994Z,21.60
2017-12-03T11:08:14.464Z,21.30
2017-12-03T11:10:41.954Z,21.60
2017-12-03T11:13:10.275Z,20.13
2017-12-03T11:15:37.828Z,19.17
2017-12-03T11:18:05.408Z,20.63
2017-12-03T11:20:32.909Z,20.63
2017-12-03T11:23:00.449Z,22.33
2017-12-03T11:25:27.945Z,21.03
2017-12-03T11:27:55.500Z,20.60
2017-12-03T11:30:22.998Z,22.63
2017-12-03T11:32:50.509Z,22.90
2017-12-03T11:35:18.817Z,21.47
2017-12-03T11:37:46.316Z,22.40
2017-12-03T11:40:13.894Z,22.13
2017-12-03T11:42:41.393Z,20.93
2017-12-03T11:45:08.998Z,23.00
2017-12-03T11:47:36.546Z,23.30
2017-12-03T11:50:04.045Z,20.83
2017-12-03T11:52:31.589Z,21.37
2017-12-03T11:54:59.091Z,21.10
2017-12-03T11:57:26.713Z,21.37
2017-12-03T11:59:54.224Z,23.07
2017-12-03T12:02:22.533Z,20.80
2017-12-03T12:04:50.071Z,22.00
2017-12-03T12:07:18.372Z,21.37
2017-12-03T12:09:45.896Z,20.90
2017-12-03T12:12:13.403Z,21.50
2017-12-03T12:14:40.953Z,20.50
2017-12-03T12:17:08.489Z,21.33
2017-12-03T12:19:36.044Z,22.07
2017-12-03T12:22:03.548Z,22.27
2017-12-03T12:24:31.087Z,22.13
2017-12-03T12:26:58.609Z,21.10
2017-12-03T12:29:26.137Z,21.27
2017-12-03T12:31:53.663Z,22.33
2017-12-03T12:34:21.228Z,21.93
2017-12-03T12:36:48.721Z,20.27
2017-12-03T12:39:16.241Z,20.90
2017-12-03T12:41:43.804Z,21.00
2017-12-03T12:44:11.321Z,20.93
2017-12-03T12:46:38.885Z,19.10
2017-12-03T12:49:06.397Z,21.07
2017-12-03T12:51:33.948Z,20.00
2017-12-03T12:54:02.289Z,22.10
2017-12-03T12:56:29.842Z,19.70
2017-12-03T12:58:57.347Z,21.10
2017-12-03T13:01:24.890Z,21.93
2017-12-03T13:03:53.265Z,21.77
2017-12-03T13:06:20.960Z,22.20
2017-12-03T13:08:48.458Z,22.97
2017-12-03T13:11:15.997Z,24.03
2017-12-03T13:13:43.537Z,24.00
2017-12-03T13:16:11.807Z,24.70
2017-12-03T13:18:39.361Z,23.23
2017-12-03T13:21:06.865Z,22.03
2017-12-03T13:23:35.215Z,19.20
2017-12-03T13:26:02.741Z,21.30
2017-12-03T13:28:31.045Z,19.90
2017-12-03T13:30:58.564Z,19.17
2017-12-03T13:33:26.133Z,19.13
2017-12-03T13:35:53.634Z,19.40
2017-12-03T13:38:21.972Z,22.00
2017-12-03T13:40:49.466Z,22.10
2017-12-03T13:43:17.002Z,24.07
2017-12-03T13:45:44.574Z,23.10
2017-12-03T13:48:12.073Z,23.47
2017-12-03T13:50:39.625Z,23.97
2017-12-03T13:53:07.157Z,22.03
2017-12-03T13:55:34.720Z,20.47
2017-12-03T13:58:03.645Z,21.80
2017-12-03T14:00:31.218Z,20.00
2017-12-03T14:02:59.238Z,22.50
2017-12-03T14:05:26.789Z,22.90
2017-12-03T14:07:54.324Z,23.47
2017-12-03T14:10:21.885Z,22.83
2017-12-03T14:12:49.446Z,23.67
2017-12-03T14:15:17.029Z,22.93
2017-12-03T14:17:44.524Z,22.57
2017-12-03T14:20:12.829Z,22.30
2017-12-03T14:22:40.379Z,23.00
2017-12-03T14:25:08.652Z,23.90
2017-12-03T14:27:36.200Z,21.80
2017-12-03T14:30:03.715Z,21.27
2017-12-03T14:32:31.281Z,22.20
2017-12-03T14:34:59.557Z,21.20
2017-12-03T14:37:27.096Z,22.10
2017-12-03T14:39:54.606Z,23.70
2017-12-03T14:42:23.732Z,23.00
2017-12-03T14:44:52.002Z,23.80
2017-12-03T14:47:20.340Z,23.03
2017-12-03T14:49:47.847Z,24.00
2017-12-03T14:52:15.354Z,23.40
2017-12-03T14:54:42.895Z,22.93
2017-12-03T14:57:10.400Z,22.60
2017-12-03T14:59:37.936Z,23.40
2017-12-03T15:02:05.438Z,25.57
2017-12-03T15:04:33.739Z,25.80
2017-12-03T15:07:01.274Z,26.83
2017-12-03T15:09:28.839Z,28.23
2017-12-03T15:11:56.364Z,27.57
2017-12-03T15:14:23.882Z,26.50
2017-12-03T15:16:51.450Z,25.20
2017-12-03T15:19:18.941Z,24.43
2017-12-03T15:21:47.377Z,27.80
2017-12-03T15:24:14.895Z,28.80
2017-12-03T15:26:42.423Z,30.40
2017-12-03T15:29:09.949Z,27.23
2017-12-03T15:31:38.255Z,28.47
2017-12-03T15:34:05.774Z,28.13
2017-12-03T15:36:33.291Z,26.67
2017-12-03T15:39:01.597Z,26.80
2017-12-03T15:41:29.093Z,28.47
2017-12-03T15:43:56.632Z,28.80
2017-12-03T15:46:24.125Z,26.20
2017-12-03T15:48:51.729Z,28.60
2017-12-03T15:51:19.230Z,25.10
2017-12-03T15:53:47.544Z,25.23
2017-12-03T15:56:15.041Z,27.87
2017-12-03T15:58:42.607Z,29.37
2017-12-03T16:01:10.153Z,27.37
2017-12-03T16:03:37.666Z,25.30
2017-12-03T16:06:05.200Z,27.17
2017-12-03T16:08:33.820Z,27.03
2017-12-03T16:11:02.185Z,26.57
2017-12-03T16:13:29.716Z,25.07
2017-12-03T16:15:57.260Z,24.87
2017-12-03T16:18:25.296Z,27.47
2017-12-03T16:20:53.621Z,26.17
2017-12-03T16:23:21.135Z,29.80
2017-12-03T16:25:48.705Z,27.43
2017-12-03T16:28:16.218Z,32.70
2017-12-03T16:30:43.722Z,40.17
2017-12-03T16:33:11.275Z,36.67
2017-12-03T16:35:38.788Z,36.10
2017-12-03T16:38:06.341Z,35.97
2017-12-03T16:40:33.851Z,28.40
2017-12-03T16:43:02.171Z,31.07
2017-12-03T16:45:29.675Z,34.53
2017-12-03T16:47:57.259Z,35.70
2017-12-03T16:50:24.883Z,31.53
2017-12-03T16:52:52.420Z,35.50
2017-12-03T16:55:19.912Z,33.80
2017-12-03T16:57:48.393Z,38.10
2017-12-03T17:00:16.652Z,36.00
2017-12-03T17:02:44.146Z,37.47
2017-12-03T17:05:11.741Z,40.17
2017-12-03T17:07:39.244Z,36.83
2017-12-03T17:10:06.776Z,37.13
2017-12-03T17:12:35.040Z,31.67
2017-12-03T17:15:02.588Z,33.50
2017-12-03T17:17:30.089Z,36.10
2017-12-03T17:19:57.685Z,33.80
2017-12-03T17:22:25.201Z,32.97
2017-12-03T17:24:52.694Z,29.17
2017-12-03T17:27:20.266Z,28.27
2017-12-03T17:29:47.851Z,30.30
2017-12-03T17:32:15.396Z,29.67
2017-12-03T17:34:42.898Z,29.40
2017-12-03T17:37:10.433Z,33.57
2017-12-03T17:39:37.935Z,31.17
2017-12-03T17:42:05.501Z,27.93
2017-12-03T17:44:33.001Z,32.33
2017-12-03T17:47:01.269Z,32.00
2017-12-03T17:49:28.815Z,31.40
2017-12-03T17:51:56.333Z,36.73
2017-12-03T17:54:23.974Z,37.90
2017-12-03T17:56:51.471Z,37.03
2017-12-03T17:59:19.771Z,34.77
2017-12-03T18:01:47.347Z,35.40
2017-12-03T18:04:14.870Z,34.83
2017-12-03T18:06:42.364Z,34.10
2017-12-03T18:09:09.913Z,32.23
2017-12-03T18:11:37.404Z,33.17
2017-12-03T18:14:04.912Z,31.07
2017-12-03T18:16:32.452Z,31.30
2017-12-03T18:18:59.957Z,27.13
2017-12-03T18:21:27.501Z,26.37
2017-12-03T18:23:54.994Z,30.63
2017-12-03T18:26:22.541Z,28.87
2017-12-03T18:28:50.035Z,27.90
2017-12-03T18:31:18.331Z,28.60
2017-12-03T18:33:45.837Z,32.40
2017-12-03T18:36:13.389Z,31.97
2017-12-03T18:38:40.990Z,31.27
2017-12-03T18:41:08.553Z,30.80
2017-12-03T18:43:36.104Z,29.50
2017-12-03T18:46:03.613Z,25.97
2017-12-03T18:48:31.150Z,25.33
2017-12-03T18:50:59.400Z,27.23
2017-12-03T18:53:26.971Z,26.33
2017-12-03T18:55:55.246Z,26.80
2017-12-03T18:58:22.839Z,25.77
2017-12-03T19:00:50.365Z,30.50
2017-12-03T19:03:17.865Z,29.90
2017-12-03T19:05:45.416Z,32.20
2017-12-03T19:08:12.966Z,30.93
2017-12-03T19:10:40.610Z,27.80
2017-12-03T19:13:08.881Z,30.27
2017-12-03T19:15:36.425Z,26.53
2017-12-03T19:18:03.924Z,26.17
2017-12-03T19:20:31.453Z,25.17
2017-12-03T19:22:58.957Z,25.87
2017-12-03T19:25:26.519Z,24.30
2017-12-03T19:27:54.047Z,25.10
2017-12-03T19:30:21.565Z,27.97
2017-12-03T19:32:49.137Z,30.13
2017-12-03T19:35:16.642Z,28.80
2017-12-03T19:37:44.950Z,25.77
2017-12-03T19:40:12.448Z,29.30
2017-12-03T19:42:40.019Z,27.10
2017-12-03T19:45:07.624Z,26.83
2017-12-03T19:47:35.173Z,25.90
2017-12-03T19:50:02.718Z,26.90
2017-12-03T19:52:30.344Z,26.47
2017-12-03T19:54:57.868Z,25.83
2017-12-03T19:57:25.393Z,25.60
2017-12-03T19:59:52.932Z,27.10
2017-12-03T20:02:20.425Z,26.00
2017-12-03T20:04:47.958Z,27.87
2017-12-03T20:07:18.418Z,27.07
2017-12-03T20:09:46.261Z,26.10
2017-12-03T20:12:13.769Z,25.90
2017-12-03T20:14:41.367Z,28.10
2017-12-03T20:17:08.902Z,24.80
2017-12-03T20:19:36.409Z,26.47
2017-12-03T20:22:03.961Z,26.47
2017-12-03T20:24:31.568Z,25.90
2017-12-03T20:26:59.130Z,24.67
2017-12-03T20:29:26.700Z,26.20
2017-12-03T20:31:54.234Z,26.47
2017-12-03T20:34:21.789Z,25.50
2017-12-03T20:36:50.199Z,26.17
2017-12-03T20:39:17.700Z,25.23
2017-12-03T20:41:45.238Z,27.80
2017-12-03T20:44:12.960Z,29.90
2017-12-03T20:46:40.409Z,29.50
2017-12-03T20:49:08.659Z,26.27
2017-12-03T20:51:36.300Z,25.63
2017-12-03T20:54:03.839Z,26.37
2017-12-03T20:56:31.345Z,25.60
2017-12-03T20:58:58.957Z,25.80
2017-12-03T21:01:26.473Z,27.33
2017-12-03T21:03:54.018Z,28.80
2017-12-03T21:06:21.541Z,25.10
2017-12-03T21:08:49.844Z,25.87
2017-12-03T21:11:17.366Z,26.47
2017-12-03T21:13:44.936Z,25.50
2017-12-03T21:16:12.444Z,25.50
2017-12-03T21:18:40.714Z,26.47
2017-12-03T21:21:08.264Z,28.10
2017-12-03T21:23:35.750Z,26.10
2017-12-03T21:26:03.296Z,25.37
2017-12-03T21:28:30.809Z,24.40
2017-12-03T21:30:58.345Z,24.70
2017-12-03T21:33:26.628Z,24.37
2017-12-03T21:35:54.203Z,25.10
2017-12-03T21:38:21.693Z,24.10
2017-12-03T21:40:49.184Z,22.53
2017-12-03T21:43:17.520Z,22.97
2017-12-03T21:45:45.013Z,24.50
2017-12-03T21:48:12.566Z,25.97
2017-12-03T21:50:40.051Z,28.20
2017-12-03T21:53:07.606Z,29.53
2017-12-03T21:55:35.111Z,26.57
2017-12-03T21:58:02.667Z,26.60
2017-12-03T22:00:30.168Z,22.23
2017-12-03T22:02:57.726Z,22.27
2017-12-03T22:05:25.242Z,21.13
2017-12-03T22:07:53.498Z,22.30
2017-12-03T22:10:21.053Z,21.67
2017-12-03T22:12:48.540Z,20.23
2017-12-03T22:15:16.077Z,22.40
2017-12-03T22:17:43.573Z,21.43
2017-12-03T22:20:11.121Z,22.77
2017-12-03T22:22:38.621Z,21.67
2017-12-03T22:25:06.246Z,19.90
2017-12-03T22:27:33.737Z,22.23
2017-12-03T22:30:01.270Z,21.33
2017-12-03T22:32:29.580Z,22.83
2017-12-03T22:34:57.069Z,24.77
2017-12-03T22:37:24.612Z,28.00
2017-12-03T22:39:52.129Z,26.90
2017-12-03T22:42:19.645Z,26.37
2017-12-03T22:44:47.134Z,19.00
2017-12-03T22:47:14.704Z,17.90
2017-12-03T22:49:42.944Z,16.33
2017-12-03T22:52:10.436Z,17.13
2017-12-03T22:54:37.960Z,17.80
2017-12-03T22:57:05.465Z,17.00
2017-12-03T22:59:33.000Z,18.97
2017-12-03T23:02:00.488Z,19.80
2017-12-03T23:04:29.972Z,21.77
2017-12-03T23:06:57.480Z,19.37
2017-12-03T23:09:25.013Z,18.73
2017-12-03T23:11:52.496Z,21.60
2017-12-03T23:14:20.273Z,20.00
2017-12-03T23:16:47.790Z,19.20
2017-12-03T23:19:15.297Z,21.00
2017-12-03T23:21:43.607Z,21.97
2017-12-03T23:24:11.107Z,20.97
2017-12-03T23:26:38.640Z,21.80
2017-12-03T23:29:06.128Z,20.10
2017-12-03T23:31:33.660Z,22.10
2017-12-03T23:34:01.916Z,19.87
2017-12-03T23:36:29.484Z,20.10
2017-12-03T23:38:56.975Z,21.53
2017-12-03T23:41:24.478Z,19.90
2017-12-03T23:43:51.996Z,20.10
2017-12-03T23:46:19.980Z,19.70
2017-12-03T23:48:47.522Z,19.03
2017-12-03T23:51:15.032Z,20.40
2017-12-03T23:53:42.555Z,19.30
2017-12-03T23:56:10.054Z,19.70
2017-12-03T23:58:37.590Z,19.07
